Philadelphia, Pennsylvania
Traffic Map
Current Weather Conditions
Philadelphia, Pennsylvania
Scattered Clouds
Scattered Clouds
23°
Feels Like: 23°
Wind Chill: 23° Ceiling: Unl
Heat Index: 23° Visibility: 10mi
Dew Point: 11° Wind: 10mph
Humidity: 46% Direction: 330° (NNW)
Pressure: 29.9in Gusts: 0mph
Raw Report DataKPHL 291554Z 33009KT 10SM SCT039 23/11 A2990 RMK AO2 SLP123 T02330111 $
Traffic Incident Summary
Active as of:
Severity:
Category:
InformationThere was an issue retrieving the traffic information for this location. Please try a different location or try again shortly.
Advertisements
Track Severe Weather on mobile